Airport ICAO


07:16 UTC

4°C

Mist


An affordable passengers' Moving Map for your aircraft. Made for the iPad and the iPhone
More information here

EGWU Northolt


Northolt UNITED KINGDOM   VFR


METAR EGWU 170650Z 14004KT 5000 BR FEW180 04/04 Q1015 WHT BECMG 9999 NSW BLU 0h26min

TAF EGWU 170443Z 1706/1724 16010KT 3500 BR NSC BECMG 1707/1710 9999 NSW BECMG 1711/1714 BKN015 TEMPO 1714/1719 SCT012 2h33min





NOTAMS

OPEN